createdAt,value
2018-04-11T00:01:38.402Z,4.45
2018-04-11T00:04:06.785Z,7.10
2018-04-11T00:06:35.206Z,6.57
2018-04-11T00:09:04.360Z,4.80
2018-04-11T00:11:32.758Z,5.27
2018-04-11T00:14:01.170Z,4.83
2018-04-11T00:16:29.585Z,6.23
2018-04-11T00:18:57.970Z,4.20
2018-04-11T00:21:26.377Z,6.67
2018-04-11T00:23:54.857Z,7.17
2018-04-11T00:26:23.379Z,5.23
2018-04-11T00:28:51.970Z,6.13
2018-04-11T00:31:20.361Z,7.07
2018-04-11T00:33:49.533Z,12.40
2018-04-11T00:36:17.914Z,6.93
2018-04-11T00:38:46.325Z,6.05
2018-04-11T00:41:15.585Z,6.60
2018-04-11T00:43:43.991Z,6.83
2018-04-11T00:46:12.398Z,7.00
2018-04-11T00:48:41.541Z,7.03
2018-04-11T00:51:09.997Z,8.05
2018-04-11T00:53:38.380Z,11.30
2018-04-11T00:56:06.793Z,16.10
2018-04-11T00:58:35.202Z,10.10
2018-04-11T01:01:03.630Z,8.50
2018-04-11T01:03:32.033Z,9.50
2018-04-11T01:06:00.406Z,8.87
2018-04-11T01:08:28.793Z,7.47
2018-04-11T01:10:57.177Z,8.10
2018-04-11T01:13:26.338Z,6.47
2018-04-11T01:15:55.591Z,6.10
2018-04-11T01:18:23.990Z,9.60
2018-04-11T01:20:52.402Z,6.50
2018-04-11T01:23:20.798Z,9.20
2018-04-11T01:25:50.027Z,11.03
2018-04-11T01:28:18.417Z,14.70
2018-04-11T01:30:46.892Z,15.53
2018-04-11T01:33:15.213Z,16.00
2018-04-11T01:35:43.640Z,15.83
2018-04-11T01:38:12.028Z,15.40
2018-04-11T01:40:41.217Z,17.37
2018-04-11T01:43:10.390Z,11.82
2018-04-11T01:45:38.788Z,13.80
2018-04-11T01:48:07.177Z,14.80
2018-04-11T01:50:36.374Z,11.77
2018-04-11T01:53:04.776Z,11.47
2018-04-11T01:55:33.989Z,10.87
2018-04-11T01:58:02.378Z,9.93
2018-04-11T02:00:30.789Z,12.57
2018-04-11T02:02:59.186Z,14.30
2018-04-11T02:05:28.325Z,8.10
2018-04-11T02:07:57.479Z,8.13
2018-04-11T02:10:25.854Z,9.00
2018-04-11T02:12:54.253Z,9.25
2018-04-11T02:15:22.679Z,7.75
2018-04-11T02:17:51.826Z,8.90
2018-04-11T02:20:20.289Z,6.73
2018-04-11T02:22:48.664Z,7.17
2018-04-11T02:25:17.097Z,8.07
2018-04-11T02:27:45.496Z,7.40
2018-04-11T02:30:14.641Z,6.57
2018-04-11T02:32:43.800Z,6.20
2018-04-11T02:35:13.877Z,6.87
2018-04-11T02:37:42.318Z,7.40
2018-04-11T02:40:11.473Z,7.20
2018-04-11T02:42:39.880Z,7.10
2018-04-11T02:45:08.246Z,7.07
2018-04-11T02:47:36.723Z,10.73
2018-04-11T02:50:05.228Z,7.25
2018-04-11T02:52:33.613Z,7.43
2018-04-11T02:55:02.017Z,7.80
2018-04-11T02:57:31.175Z,7.40
2018-04-11T02:59:59.552Z,9.50
2018-04-11T03:02:28.000Z,8.47
2018-04-11T03:04:56.436Z,7.95
2018-04-11T03:07:24.818Z,9.73
2018-04-11T03:09:53.245Z,6.53
2018-04-11T03:12:22.412Z,6.93
2018-04-11T03:14:50.814Z,7.62
2018-04-11T03:17:19.963Z,8.80
2018-04-11T03:19:48.363Z,7.33
2018-04-11T03:22:16.753Z,8.43
2018-04-11T03:24:45.122Z,9.30
2018-04-11T03:27:13.648Z,6.70
2018-04-11T03:29:42.052Z,8.43
2018-04-11T03:32:10.441Z,7.90
2018-04-11T03:34:38.850Z,8.27
2018-04-11T03:37:07.252Z,7.72
2018-04-11T03:39:35.645Z,9.40
2018-04-11T03:42:04.204Z,8.70
2018-04-11T03:44:33.336Z,10.77
2018-04-11T03:47:01.734Z,14.60
2018-04-11T03:49:30.897Z,11.48
2018-04-11T03:51:59.345Z,11.43
2018-04-11T03:54:27.777Z,10.25
2018-04-11T03:56:56.161Z,10.70
2018-04-11T03:59:24.623Z,9.57
2018-04-11T04:01:53.036Z,11.87
2018-04-11T04:04:21.457Z,10.53
2018-04-11T04:06:49.850Z,14.45
2018-04-11T04:09:18.233Z,12.97
2018-04-11T04:11:46.639Z,11.63
2018-04-11T04:14:32.718Z,10.13
2018-04-11T04:17:18.812Z,10.50
2018-04-11T04:23:07.426Z,11.50
2018-04-11T04:25:36.577Z,10.70
2018-04-11T04:28:05.006Z,11.27
2018-04-11T04:30:34.168Z,12.60
2018-04-11T04:33:03.329Z,11.07
2018-04-11T04:35:31.727Z,10.13
2018-04-11T04:38:00.097Z,10.43
2018-04-11T04:40:28.493Z,10.10
2018-04-11T04:42:56.898Z,12.88
2018-04-11T04:45:25.293Z,11.37
2018-04-11T04:47:53.730Z,12.13
2018-04-11T04:50:22.140Z,11.07
2018-04-11T04:52:50.556Z,10.93
2018-04-11T04:55:18.957Z,12.50
2018-04-11T04:57:48.128Z,12.10
2018-04-11T05:00:16.518Z,10.53
2018-04-11T05:02:44.954Z,11.50
2018-04-11T05:05:13.353Z,9.43
2018-04-11T05:07:41.858Z,10.60
2018-04-11T05:10:10.306Z,13.87
2018-04-11T05:12:38.717Z,10.57
2018-04-11T05:15:07.137Z,9.67
2018-04-11T05:17:36.335Z,13.23
2018-04-11T05:20:05.514Z,16.30
2018-04-11T05:22:33.914Z,10.23
2018-04-11T05:25:03.117Z,10.70
2018-04-11T05:27:31.504Z,12.63
2018-04-11T05:30:00.659Z,10.13
2018-04-11T05:32:29.065Z,10.00
2018-04-11T05:34:57.514Z,11.83
2018-04-11T05:37:25.914Z,9.97
2018-04-11T05:39:54.302Z,13.70
2018-04-11T05:42:22.721Z,11.17
2018-04-11T05:44:51.112Z,11.00
2018-04-11T05:47:20.269Z,12.23
2018-04-11T05:49:48.674Z,12.23
2018-04-11T05:52:17.062Z,8.90
2018-04-11T05:54:46.221Z,12.50
2018-04-11T05:57:14.662Z,11.17
2018-04-11T05:59:43.833Z,13.90
2018-04-11T06:02:12.217Z,11.13
2018-04-11T06:04:40.617Z,10.50
2018-04-11T06:07:09.797Z,9.60
2018-04-11T06:09:38.188Z,13.03
2018-04-11T06:12:06.594Z,9.73
2018-04-11T06:14:35.758Z,13.43
2018-04-11T06:17:04.224Z,11.10
2018-04-11T06:19:32.597Z,11.07
2018-04-11T06:22:00.982Z,9.87
2018-04-11T06:24:29.494Z,11.17
2018-04-11T06:26:57.899Z,10.90
2018-04-11T06:29:26.317Z,10.97
2018-04-11T06:31:54.720Z,11.13
2018-04-11T06:34:23.121Z,11.27
2018-04-11T06:36:51.511Z,16.80
2018-04-11T06:39:19.968Z,14.00
2018-04-11T06:41:48.348Z,14.70
2018-04-11T06:44:16.748Z,14.13
2018-04-11T06:46:45.140Z,12.23
2018-04-11T06:49:14.286Z,15.30
2018-04-11T06:51:43.547Z,10.47
2018-04-11T06:54:11.959Z,13.93
2018-04-11T06:56:40.394Z,11.30
2018-04-11T06:59:08.790Z,10.97
2018-04-11T07:01:37.159Z,9.63
2018-04-11T07:04:05.561Z,14.10
2018-04-11T07:06:33.959Z,17.17
2018-04-11T07:09:02.380Z,10.93
2018-04-11T07:11:31.550Z,11.07
2018-04-11T07:13:59.982Z,12.30
2018-04-11T07:16:28.362Z,13.93
2018-04-11T07:18:56.755Z,13.30
2018-04-11T07:21:25.154Z,12.00
2018-04-11T07:23:53.569Z,13.40
2018-04-11T07:26:21.957Z,14.00
2018-04-11T07:28:50.379Z,11.40
2018-04-11T07:31:18.818Z,10.53
2018-04-11T07:33:47.321Z,12.47
2018-04-11T07:36:16.492Z,15.30
2018-04-11T07:38:44.899Z,12.37
2018-04-11T07:41:13.334Z,12.50
2018-04-11T07:43:41.808Z,11.93
2018-04-11T07:46:10.366Z,10.37
2018-04-11T07:48:38.726Z,11.83
2018-04-11T07:51:07.186Z,12.00
2018-04-11T07:53:35.654Z,11.77
2018-04-11T07:56:04.057Z,12.23
2018-04-11T07:58:32.474Z,16.50
2018-04-11T08:01:01.733Z,11.70
2018-04-11T08:03:30.922Z,10.80
2018-04-11T08:06:00.096Z,8.73
2018-04-11T08:08:29.274Z,14.43
2018-04-11T08:10:57.685Z,12.03
2018-04-11T08:13:26.855Z,12.77
2018-04-11T08:15:55.350Z,14.13
2018-04-11T08:18:23.750Z,13.00
2018-04-11T08:20:52.898Z,12.50
2018-04-11T08:23:21.285Z,12.70
2018-04-11T08:25:49.786Z,15.37
2018-04-11T08:28:18.173Z,15.10
2018-04-11T08:30:46.621Z,13.77
2018-04-11T08:33:15.022Z,12.50
2018-04-11T08:35:43.432Z,12.97
2018-04-11T08:38:12.864Z,12.60
2018-04-11T08:40:41.350Z,15.83
2018-04-11T08:43:10.542Z,13.20
2018-04-11T08:45:39.957Z,16.20
2018-04-11T08:48:09.137Z,14.33
2018-04-11T08:50:37.539Z,14.13
2018-04-11T08:53:06.700Z,11.70
2018-04-11T08:55:35.189Z,13.07
2018-04-11T08:58:03.590Z,10.60
2018-04-11T09:00:32.021Z,10.63
2018-04-11T09:03:00.421Z,10.90
2018-04-11T09:05:28.858Z,11.20
2018-04-11T09:07:57.206Z,9.73
2018-04-11T09:10:25.667Z,12.60
2018-04-11T09:12:54.035Z,8.83
2018-04-11T09:15:22.419Z,8.80
2018-04-11T09:17:50.809Z,9.33
2018-04-11T09:20:19.320Z,9.30
2018-04-11T09:22:47.747Z,9.03
2018-04-11T09:25:16.918Z,8.17
2018-04-11T09:27:45.317Z,10.00
2018-04-11T09:30:14.477Z,9.67
2018-04-11T09:32:42.908Z,9.60
2018-04-11T09:35:12.086Z,11.63
2018-04-11T09:37:40.510Z,9.77
2018-04-11T09:40:08.873Z,9.90
2018-04-11T09:42:38.054Z,11.33
2018-04-11T09:45:06.435Z,10.90
2018-04-11T09:47:34.826Z,9.57
2018-04-11T09:50:03.195Z,9.87
2018-04-11T09:52:31.595Z,9.57
2018-04-11T09:54:59.988Z,9.13
2018-04-11T09:57:29.156Z,14.00
2018-04-11T09:59:57.570Z,11.13
2018-04-11T10:02:26.729Z,11.43
2018-04-11T10:04:55.137Z,10.47
2018-04-11T10:07:23.542Z,12.90
2018-04-11T10:09:52.702Z,10.90
2018-04-11T10:12:21.140Z,12.30
2018-04-11T10:14:49.619Z,12.03
2018-04-11T10:17:18.803Z,16.37
2018-04-11T10:19:47.203Z,12.70
2018-04-11T10:22:16.353Z,11.60
2018-04-11T10:24:44.783Z,13.53
2018-04-11T10:27:13.938Z,13.47
2018-04-11T10:29:42.354Z,13.83
2018-04-11T10:32:10.760Z,14.97
2018-04-11T10:34:39.173Z,13.03
2018-04-11T10:37:08.208Z,14.80
2018-04-11T10:39:36.704Z,14.23
2018-04-11T10:42:05.178Z,14.27
2018-04-11T10:44:33.587Z,16.07
2018-04-11T10:47:02.767Z,14.40
2018-04-11T10:49:31.173Z,15.13
2018-04-11T10:52:00.363Z,16.50
2018-04-11T10:54:29.583Z,15.43
2018-04-11T10:56:58.765Z,14.37
2018-04-11T10:59:27.972Z,16.27
2018-04-11T11:01:57.173Z,13.73
2018-04-11T11:04:26.391Z,14.27
2018-04-11T11:06:54.789Z,15.73
2018-04-11T11:11:47.910Z,15.83
2018-04-11T11:14:16.322Z,14.77
2018-04-11T11:16:45.506Z,15.50
2018-04-11T11:19:13.882Z,15.63
2018-04-11T11:21:42.309Z,15.77
2018-04-11T11:24:10.741Z,15.93
2018-04-11T11:26:39.604Z,16.30
2018-04-11T11:29:08.089Z,17.47
2018-04-11T11:31:36.499Z,15.73
2018-04-11T11:34:04.902Z,16.33
2018-04-11T11:36:33.314Z,20.63
2018-04-11T11:39:02.680Z,15.83
2018-04-11T11:41:31.070Z,18.43
2018-04-11T11:43:59.480Z,18.93
2018-04-11T11:46:27.938Z,17.90
2018-04-11T11:48:56.427Z,16.13
2018-04-11T11:51:25.663Z,15.77
2018-04-11T11:53:54.873Z,17.83
2018-04-11T11:56:23.287Z,15.87
2018-04-11T11:58:51.691Z,16.03
2018-04-11T12:01:20.517Z,16.70
2018-04-11T12:03:49.682Z,17.83
2018-04-11T12:06:18.441Z,18.73
2018-04-11T12:08:46.897Z,18.30
2018-04-11T12:11:16.057Z,16.20
2018-04-11T12:13:44.462Z,21.87
2018-04-11T12:16:12.863Z,17.10
2018-04-11T12:18:42.294Z,20.60
2018-04-11T12:21:10.707Z,18.40
2018-04-11T12:23:39.161Z,17.23
2018-04-11T12:26:08.529Z,19.00
2018-04-11T12:28:37.730Z,20.60
2018-04-11T12:31:06.128Z,19.37
2018-04-11T12:33:35.326Z,22.30
2018-04-11T12:36:04.483Z,21.57
2018-04-11T12:38:32.889Z,20.00
2018-04-11T12:41:01.339Z,20.57
2018-04-11T12:43:29.759Z,25.30
2018-04-11T12:45:58.183Z,28.93
2018-04-11T12:48:26.582Z,24.73
2018-04-11T12:50:54.980Z,24.67
2018-04-11T12:53:23.378Z,25.57
2018-04-11T12:55:51.782Z,26.67
2018-04-11T12:58:20.209Z,25.80
2018-04-11T13:00:48.611Z,25.07
2018-04-11T13:03:17.003Z,28.33
2018-04-11T13:05:45.451Z,28.77
2018-04-11T13:08:13.957Z,27.97
2018-04-11T13:10:42.370Z,30.73
2018-04-11T13:13:10.795Z,24.43
2018-04-11T13:15:40.005Z,30.20
2018-04-11T13:18:08.407Z,26.83
2018-04-11T13:20:36.807Z,26.03
2018-04-11T13:23:05.434Z,27.67
2018-04-11T13:25:33.836Z,26.60
2018-04-11T13:28:03.031Z,25.87
2018-04-11T13:30:32.247Z,25.57
2018-04-11T13:33:00.819Z,24.07
2018-04-11T13:35:30.006Z,24.60
2018-04-11T13:37:58.415Z,28.90
2018-04-11T13:40:26.815Z,25.03
2018-04-11T13:42:55.222Z,25.10
2018-04-11T13:45:23.636Z,24.50
2018-04-11T13:47:52.018Z,25.90
2018-04-11T13:50:20.426Z,25.03
2018-04-11T13:52:49.596Z,23.50
2018-04-11T13:55:18.002Z,26.37
2018-04-11T13:57:47.232Z,23.80
2018-04-11T14:00:15.711Z,23.50
2018-04-11T14:02:44.150Z,23.40
2018-04-11T14:05:12.554Z,21.73
2018-04-11T14:07:41.698Z,22.40
2018-04-11T14:10:10.118Z,24.57
2018-04-11T14:12:38.518Z,22.23
2018-04-11T14:15:06.961Z,23.87
2018-04-11T14:17:35.395Z,22.50
2018-04-11T14:20:04.560Z,24.57
2018-04-11T14:22:32.949Z,23.30
2018-04-11T14:25:01.357Z,24.17
2018-04-11T14:27:30.532Z,24.17
2018-04-11T14:29:58.933Z,22.33
2018-04-11T14:32:27.358Z,22.03
2018-04-11T14:34:55.784Z,25.07
2018-04-11T14:37:24.216Z,24.60
2018-04-11T14:39:52.654Z,24.60
2018-04-11T14:42:21.048Z,25.27
2018-04-11T14:44:49.467Z,25.77
2018-04-11T14:47:17.868Z,25.17
2018-04-11T14:49:46.285Z,25.00
2018-04-11T14:52:14.730Z,24.70
2018-04-11T14:54:43.130Z,25.47
2018-04-11T14:57:11.557Z,23.60
2018-04-11T14:59:39.958Z,24.77
2018-04-11T15:02:09.178Z,26.00
2018-04-11T15:04:37.599Z,24.03
2018-04-11T15:07:06.018Z,22.00
2018-04-11T15:09:35.225Z,24.37
2018-04-11T15:12:04.382Z,26.10
2018-04-11T15:14:32.797Z,24.97
2018-04-11T15:17:01.959Z,24.50
2018-04-11T15:19:30.406Z,24.63
2018-04-11T15:21:58.795Z,23.50
2018-04-11T15:24:27.221Z,27.10
2018-04-11T15:26:55.651Z,24.30
2018-04-11T15:29:24.874Z,21.83
2018-04-11T15:31:53.290Z,22.77
2018-04-11T15:34:21.742Z,23.50
2018-04-11T15:36:50.917Z,26.53
2018-04-11T15:39:20.073Z,25.33
2018-04-11T15:41:48.488Z,27.67
2018-04-11T15:44:16.901Z,26.37
2018-04-11T15:46:45.312Z,25.37
2018-04-11T15:49:13.735Z,24.57
2018-04-11T15:51:42.137Z,23.60
2018-04-11T15:54:11.304Z,24.63
2018-04-11T15:56:39.758Z,22.80
2018-04-11T15:59:08.195Z,25.13
2018-04-11T16:01:36.720Z,22.37
2018-04-11T16:04:05.174Z,22.97
2018-04-11T16:06:34.328Z,20.67
2018-04-11T16:09:02.746Z,20.83
2018-04-11T16:11:31.170Z,19.37
2018-04-11T16:13:59.618Z,18.50
2018-04-11T16:16:28.864Z,17.37
2018-04-11T16:18:57.251Z,18.43
2018-04-11T16:21:25.673Z,18.73
2018-04-11T16:23:54.123Z,17.30
2018-04-11T16:26:22.566Z,15.87
2018-04-11T16:28:51.761Z,13.53
2018-04-11T16:31:20.974Z,14.17
2018-04-11T16:33:50.163Z,13.27
2018-04-11T16:36:19.366Z,11.10
2018-04-11T16:38:48.546Z,10.40
2018-04-11T16:41:16.911Z,9.50
2018-04-11T16:43:45.385Z,9.13
2018-04-11T16:46:13.830Z,8.93
2018-04-11T16:48:43.006Z,10.23
2018-04-11T16:51:11.420Z,9.90
2018-04-11T16:53:40.640Z,9.97
2018-04-11T16:56:09.043Z,11.13
2018-04-11T16:58:37.446Z,10.90
2018-04-11T17:01:05.847Z,9.97
2018-04-11T17:03:34.304Z,10.57
2018-04-11T17:06:02.738Z,10.50
2018-04-11T17:08:31.918Z,9.07
2018-04-11T17:11:01.103Z,7.67
2018-04-11T17:13:29.514Z,7.17
2018-04-11T17:15:58.701Z,9.33
2018-04-11T17:18:27.113Z,6.73
2018-04-11T17:21:13.337Z,6.20
2018-04-11T17:23:59.662Z,6.43
2018-04-11T17:29:46.825Z,7.43
2018-04-11T17:32:15.402Z,6.50
2018-04-11T17:34:43.802Z,6.47
2018-04-11T17:37:12.212Z,7.00
2018-04-11T17:39:40.617Z,7.80
2018-04-11T17:42:09.010Z,10.13
2018-04-11T17:44:38.190Z,12.67
2018-04-11T17:47:06.597Z,6.97
2018-04-11T17:49:35.822Z,7.60
2018-04-11T17:52:04.210Z,9.40
2018-04-11T17:54:32.646Z,6.80
2018-04-11T17:57:01.058Z,5.63
2018-04-11T17:59:30.293Z,6.70
2018-04-11T18:01:58.768Z,5.40
2018-04-11T18:04:27.270Z,6.13
2018-04-11T18:06:55.738Z,6.73
2018-04-11T18:09:24.130Z,6.07
2018-04-11T18:11:52.514Z,6.53
2018-04-11T18:14:20.988Z,6.40
2018-04-11T18:16:49.463Z,5.87
2018-04-11T18:19:17.889Z,7.53
2018-04-11T18:21:46.279Z,6.27
2018-04-11T18:24:14.701Z,6.80
2018-04-11T18:26:43.897Z,5.90
2018-04-11T18:29:13.085Z,6.17
2018-04-11T18:31:41.488Z,7.83
2018-04-11T18:34:10.719Z,7.43
2018-04-11T18:36:39.066Z,7.13
2018-04-11T18:39:08.328Z,7.50
2018-04-11T18:41:36.763Z,7.33
2018-04-11T18:44:06.004Z,7.47
2018-04-11T18:46:34.447Z,7.10
2018-04-11T18:49:03.664Z,8.07
2018-04-11T18:51:32.739Z,8.00
2018-04-11T18:54:01.137Z,7.00
2018-04-11T18:56:30.311Z,8.93
2018-04-11T18:58:59.662Z,10.40
2018-04-11T19:01:29.124Z,10.47
2018-04-11T19:04:00.041Z,15.20
2018-04-11T19:06:28.631Z,12.17
2018-04-11T19:08:57.103Z,13.83
2018-04-11T19:11:25.519Z,15.90
2018-04-11T19:13:55.077Z,11.40
2018-04-11T19:16:24.218Z,15.15
2018-04-11T19:18:53.428Z,11.97
2018-04-11T19:21:23.195Z,10.07
2018-04-11T19:23:51.944Z,8.93
2018-04-11T19:26:21.138Z,8.73
2018-04-11T19:28:49.985Z,9.38
2018-04-11T19:31:18.414Z,8.07
2018-04-11T19:33:46.929Z,11.93
2018-04-11T19:36:15.587Z,8.65
2018-04-11T19:38:45.149Z,9.73
2018-04-11T19:41:21.737Z,9.88
2018-04-11T19:43:50.179Z,9.13
2018-04-11T19:46:18.672Z,9.35
2018-04-11T19:48:47.175Z,9.48
2018-04-11T19:51:15.610Z,11.35
2018-04-11T19:53:46.006Z,10.70
2018-04-11T19:56:14.504Z,10.55
2018-04-11T19:58:42.884Z,11.40
2018-04-11T20:01:12.069Z,12.90
2018-04-11T20:03:40.459Z,11.30
2018-04-11T20:06:08.851Z,10.55
2018-04-11T20:08:37.248Z,27.45
2018-04-11T20:11:05.653Z,38.03
2018-04-11T20:13:35.054Z,47.62
2018-04-11T20:16:04.250Z,44.83
2018-04-11T20:18:32.659Z,38.92
2018-04-11T20:21:01.849Z,25.23
2018-04-11T20:23:33.041Z,23.08
2018-04-11T20:26:01.433Z,23.87
2018-04-11T20:28:29.822Z,25.73
2018-04-11T20:30:58.249Z,21.50
2018-04-11T20:33:27.470Z,33.95
2018-04-11T20:35:55.915Z,30.70
2018-04-11T20:38:24.350Z,28.62
2018-04-11T20:40:52.763Z,29.87
2018-04-11T20:43:21.163Z,26.08
2018-04-11T20:45:49.608Z,19.48
2018-04-11T20:48:18.952Z,20.55
2018-04-11T20:50:48.964Z,18.12
2018-04-11T20:53:17.361Z,17.80
2018-04-11T20:55:45.791Z,17.98
2018-04-11T20:58:14.246Z,18.23
2018-04-11T21:00:43.422Z,20.30
2018-04-11T21:03:11.830Z,23.17
2018-04-11T21:05:41.034Z,25.30
2018-04-11T21:08:10.243Z,24.20
2018-04-11T21:10:39.434Z,26.95
2018-04-11T21:13:08.650Z,23.80
2018-04-11T21:15:37.063Z,22.73
2018-04-11T21:18:05.490Z,18.73
2018-04-11T21:20:33.915Z,19.60
2018-04-11T21:23:02.300Z,15.18
2018-04-11T21:25:30.677Z,15.23
2018-04-11T21:27:59.172Z,15.98
2018-04-11T21:30:27.557Z,15.60
2018-04-11T21:32:56.073Z,14.20
2018-04-11T21:35:24.533Z,17.37
2018-04-11T21:37:52.977Z,13.68
2018-04-11T21:40:22.155Z,14.80
2018-04-11T21:42:50.546Z,13.90
2018-04-11T21:45:18.931Z,16.70
2018-04-11T21:47:47.321Z,15.57
2018-04-11T21:50:16.525Z,13.98
2018-04-11T21:52:45.671Z,21.75
2018-04-11T21:55:14.154Z,16.67
2018-04-11T21:57:42.558Z,19.42
2018-04-11T22:00:11.798Z,18.30
2018-04-11T22:02:40.942Z,17.02
2018-04-11T22:05:09.413Z,16.05
2018-04-11T22:07:37.795Z,15.88
2018-04-11T22:10:06.205Z,17.55
2018-04-11T22:12:34.669Z,16.58
2018-04-11T22:15:03.110Z,15.88
2018-04-11T22:17:31.495Z,15.75
2018-04-11T22:19:59.861Z,16.95
2018-04-11T22:22:28.255Z,14.25
2018-04-11T22:24:56.628Z,15.77
2018-04-11T22:27:25.018Z,18.95
2018-04-11T22:29:53.436Z,17.12
2018-04-11T22:32:21.866Z,16.52
2018-04-11T22:34:50.532Z,15.45
2018-04-11T22:37:18.911Z,14.45
2018-04-11T22:39:47.307Z,14.38
2018-04-11T22:42:15.676Z,16.83
2018-04-11T22:44:44.110Z,14.65
2018-04-11T22:47:12.498Z,13.88
2018-04-11T22:49:40.921Z,13.80
2018-04-11T22:52:09.302Z,14.77
2018-04-11T22:54:37.749Z,13.95
2018-04-11T22:57:06.373Z,15.07
2018-04-11T22:59:34.860Z,15.93
2018-04-11T23:02:03.250Z,15.45
2018-04-11T23:04:31.647Z,15.02
2018-04-11T23:07:00.033Z,17.02
2018-04-11T23:09:28.441Z,13.25
2018-04-11T23:11:56.954Z,14.98
2018-04-11T23:14:26.114Z,13.90
2018-04-11T23:16:54.482Z,15.35
2018-04-11T23:19:22.881Z,13.13
2018-04-11T23:21:51.274Z,13.43
2018-04-11T23:24:19.673Z,16.87
2018-04-11T23:26:48.118Z,25.20
2018-04-11T23:29:16.504Z,18.65
2018-04-11T23:31:44.901Z,18.25
2018-04-11T23:34:14.063Z,16.67
2018-04-11T23:36:42.439Z,18.90
2018-04-11T23:39:10.830Z,19.42
2018-04-11T23:41:39.210Z,19.48
2018-04-11T23:44:07.599Z,16.52
2018-04-11T23:46:36.042Z,15.65
2018-04-11T23:49:05.171Z,16.35
2018-04-11T23:51:33.653Z,15.30
2018-04-11T23:54:02.025Z,16.62
2018-04-11T23:56:30.414Z,21.10
2018-04-11T23:58:58.804Z,14.95
